<?xml version="1.0" encoding="UTF-8" standalone="no" ?>
<gpx xmlns="http://www.topografix.com/GPX/1/1" xmlns:xsi="http://www.w3.org/2001/XMLSchema-instance" xsi:schemaLocation="http://www.topografix.com/GPX/1/1 http://www.topografix.com/GPX/1/1/gpx.xsd" version="1.1" creator="VisuGPX - https://www.visugpx.com">
  <metadata>
    <name>Rodez-Retour</name>
  </metadata>
  <trk>
    <name><![CDATA[Coureur]]></name>
    <trkseg>
      <trkpt lat="44.35575" lon="2.57658">
        <ele>595</ele>
        <time>2022-02-09T07:19:35Z</time>
      </trkpt>
      <trkpt lat="44.3558" lon="2.57614">
        <ele>597</ele>
        <time>2022-02-09T07:19:46Z</time>
      </trkpt>
      <trkpt lat="44.35607" lon="2.57591">
        <ele>597</ele>
        <time>2022-02-09T07:19:56Z</time>
      </trkpt>
      <trkpt lat="44.35635" lon="2.57575">
        <ele>594</ele>
        <time>2022-02-09T07:20:06Z</time>
      </trkpt>
      <trkpt lat="44.35678" lon="2.57556">
        <ele>589</ele>
        <time>2022-02-09T07:20:21Z</time>
      </trkpt>
      <trkpt lat="44.35694" lon="2.57553">
        <ele>586</ele>
        <time>2022-02-09T07:20:27Z</time>
      </trkpt>
      <trkpt lat="44.35774" lon="2.57573">
        <ele>574</ele>
        <time>2022-02-09T07:20:54Z</time>
      </trkpt>
      <trkpt lat="44.35785" lon="2.57571">
        <ele>573</ele>
        <time>2022-02-09T07:20:57Z</time>
      </trkpt>
      <trkpt lat="44.35838" lon="2.57584">
        <ele>566</ele>
        <time>2022-02-09T07:21:15Z</time>
      </trkpt>
      <trkpt lat="44.35904" lon="2.57579">
        <ele>559</ele>
        <time>2022-02-09T07:21:37Z</time>
      </trkpt>
      <trkpt lat="44.35963" lon="2.57565">
        <ele>551</ele>
        <time>2022-02-09T07:21:57Z</time>
      </trkpt>
      <trkpt lat="44.36101" lon="2.57517">
        <ele>542</ele>
        <time>2022-02-09T07:22:45Z</time>
      </trkpt>
      <trkpt lat="44.36122" lon="2.57505">
        <ele>542</ele>
        <time>2022-02-09T07:22:52Z</time>
      </trkpt>
      <trkpt lat="44.36134" lon="2.57489">
        <ele>543</ele>
        <time>2022-02-09T07:22:58Z</time>
      </trkpt>
      <trkpt lat="44.36149" lon="2.57485">
        <ele>543</ele>
        <time>2022-02-09T07:23:03Z</time>
      </trkpt>
      <trkpt lat="44.36161" lon="2.5747">
        <ele>543</ele>
        <time>2022-02-09T07:23:08Z</time>
      </trkpt>
      <trkpt lat="44.36161" lon="2.57494">
        <ele>543</ele>
        <time>2022-02-09T07:23:14Z</time>
      </trkpt>
      <trkpt lat="44.36171" lon="2.57529">
        <ele>541</ele>
        <time>2022-02-09T07:23:23Z</time>
      </trkpt>
      <trkpt lat="44.36175" lon="2.57535">
        <ele>541</ele>
        <time>2022-02-09T07:23:25Z</time>
      </trkpt>
      <trkpt lat="44.36222" lon="2.57549">
        <ele>538</ele>
        <time>2022-02-09T07:23:41Z</time>
      </trkpt>
      <trkpt lat="44.36252" lon="2.57546">
        <ele>537</ele>
        <time>2022-02-09T07:23:51Z</time>
      </trkpt>
      <trkpt lat="44.36284" lon="2.57537">
        <ele>534</ele>
        <time>2022-02-09T07:24:02Z</time>
        <extensions>
          <visugpx:TrkExtension xmlns:visugpx="https://www.visugpx.com/editgpx/">
            <visugpx:node>1</visugpx:node>
            </visugpx:TrkExtension>
        </extensions>
      </trkpt>
    </trkseg>
  </trk>
</gpx>